sensor_id;sensor_type;location;lat;lon;timestamp;pressure;altitude;pressure_sealevel;temperature;humidity
1472;BME280;963;42.644;23.336;2023-03-19T00:00:00;94715.97;;;5.11;53.76
1472;BME280;963;42.644;23.336;2023-03-19T00:02:26;94702.78;;;4.98;53.51
1472;BME280;963;42.644;23.336;2023-03-19T00:04:51;94710.63;;;4.90;53.83
1472;BME280;963;42.644;23.336;2023-03-19T00:07:17;94743.69;;;4.81;53.56
1472;BME280;963;42.644;23.336;2023-03-19T00:09:43;94695.72;;;4.73;53.88
1472;BME280;963;42.644;23.336;2023-03-19T00:12:10;94692.81;;;4.75;53.69
1472;BME280;963;42.644;23.336;2023-03-19T00:14:36;94694.34;;;4.76;53.45
1472;BME280;963;42.644;23.336;2023-03-19T00:17:01;94687.44;;;4.71;53.17
1472;BME280;963;42.644;23.336;2023-03-19T00:19:27;94696.63;;;4.68;53.40
1472;BME280;963;42.644;23.336;2023-03-19T00:21:53;94713.34;;;4.67;53.38
1472;BME280;963;42.644;23.336;2023-03-19T00:24:19;94682.69;;;4.64;53.63
1472;BME280;963;42.644;23.336;2023-03-19T00:26:44;94680.06;;;4.64;53.61
1472;BME280;963;42.644;23.336;2023-03-19T00:29:10;94681.16;;;4.63;54.14
1472;BME280;963;42.644;23.336;2023-03-19T00:31:36;94675.59;;;4.39;54.40
1472;BME280;963;42.644;23.336;2023-03-19T00:34:02;94682.94;;;4.37;54.92
1472;BME280;963;42.644;23.336;2023-03-19T00:36:27;94674.38;;;4.45;54.26
1472;BME280;963;42.644;23.336;2023-03-19T00:38:53;94678.69;;;4.50;54.57
1472;BME280;963;42.644;23.336;2023-03-19T00:41:19;94675.13;;;4.37;55.30
1472;BME280;963;42.644;23.336;2023-03-19T00:43:45;94671.19;;;4.48;54.85
1472;BME280;963;42.644;23.336;2023-03-19T00:46:11;94678.53;;;4.46;54.86
1472;BME280;963;42.644;23.336;2023-03-19T00:48:37;94684.31;;;4.34;55.17
1472;BME280;963;42.644;23.336;2023-03-19T00:51:03;94671.88;;;4.23;55.75
1472;BME280;963;42.644;23.336;2023-03-19T00:53:29;94676.19;;;4.36;55.11
1472;BME280;963;42.644;23.336;2023-03-19T00:55:54;94665.03;;;4.44;55.27
1472;BME280;963;42.644;23.336;2023-03-19T00:58:20;94666.28;;;4.47;55.24
1472;BME280;963;42.644;23.336;2023-03-19T01:00:45;94673.78;;;4.48;55.34
1472;BME280;963;42.644;23.336;2023-03-19T01:03:11;94651.25;;;4.44;55.71
1472;BME280;963;42.644;23.336;2023-03-19T01:05:36;94647.84;;;4.34;55.46
1472;BME280;963;42.644;23.336;2023-03-19T01:08:02;94652.16;;;4.30;55.39
1472;BME280;963;42.644;23.336;2023-03-19T01:10:27;94647.38;;;4.24;54.87
1472;BME280;963;42.644;23.336;2023-03-19T01:12:52;94679.09;;;4.26;55.10
1472;BME280;963;42.644;23.336;2023-03-19T01:15:18;94653.06;;;4.26;55.76
1472;BME280;963;42.644;23.336;2023-03-19T01:17:44;94650.44;;;4.26;55.81
1472;BME280;963;42.644;23.336;2023-03-19T01:20:10;94652.59;;;4.24;55.95
1472;BME280;963;42.644;23.336;2023-03-19T01:22:43;94653.53;;;4.28;55.90
1472;BME280;963;42.644;23.336;2023-03-19T01:25:10;94648.28;;;4.11;56.07
1472;BME280;963;42.644;23.336;2023-03-19T01:27:37;94652.97;;;4.00;56.63
1472;BME280;963;42.644;23.336;2023-03-19T01:30:03;94646.25;;;4.07;56.92
1472;BME280;963;42.644;23.336;2023-03-19T01:32:28;94647.84;;;4.17;56.73
1472;BME280;963;42.644;23.336;2023-03-19T01:34:53;94642.63;;;4.17;56.92
1472;BME280;963;42.644;23.336;2023-03-19T01:37:19;94653.03;;;4.17;56.75
1472;BME280;963;42.644;23.336;2023-03-19T01:39:45;94641.88;;;4.17;56.88
1472;BME280;963;42.644;23.336;2023-03-19T01:42:11;94652.28;;;4.17;56.89
1472;BME280;963;42.644;23.336;2023-03-19T01:44:38;94662.69;;;4.17;57.17
1472;BME280;963;42.644;23.336;2023-03-19T01:47:06;94638.19;;;4.18;56.78
1472;BME280;963;42.644;23.336;2023-03-19T01:49:36;94649.63;;;4.08;56.85
1472;BME280;963;42.644;23.336;2023-03-19T01:52:06;94650.13;;;4.19;56.28
1472;BME280;963;42.644;23.336;2023-03-19T01:54:33;94646.00;;;4.18;56.62
1472;BME280;963;42.644;23.336;2023-03-19T01:57:02;94658.81;;;4.05;56.45
1472;BME280;963;42.644;23.336;2023-03-19T01:59:42;94656.22;;;4.05;56.31
1472;BME280;963;42.644;23.336;2023-03-19T02:02:27;94651.88;;;3.92;56.23
1472;BME280;963;42.644;23.336;2023-03-19T02:04:57;94641.47;;;3.92;55.94
1472;BME280;963;42.644;23.336;2023-03-19T02:07:25;94648.84;;;3.99;56.08
1472;BME280;963;42.644;23.336;2023-03-19T02:09:52;94648.53;;;4.00;55.78
1472;BME280;963;42.644;23.336;2023-03-19T02:12:18;94644.53;;;3.94;55.76
1472;BME280;963;42.644;23.336;2023-03-19T02:14:43;94657.41;;;3.99;56.21
1472;BME280;963;42.644;23.336;2023-03-19T02:17:09;94646.84;;;3.96;56.03
1472;BME280;963;42.644;23.336;2023-03-19T02:19:57;94648.38;;;3.97;55.88
1472;BME280;963;42.644;23.336;2023-03-19T02:22:26;94640.88;;;3.95;55.72
1472;BME280;963;42.644;23.336;2023-03-19T02:27:26;94639.47;;;3.89;55.86
1472;BME280;963;42.644;23.336;2023-03-19T02:29:51;94643.63;;;3.90;56.02
1472;BME280;963;42.644;23.336;2023-03-19T02:32:17;94658.75;;;3.88;55.99
1472;BME280;963;42.644;23.336;2023-03-19T02:34:42;94636.56;;;3.82;56.64
1472;BME280;963;42.644;23.336;2023-03-19T02:37:13;94628.53;;;3.70;56.99
1472;BME280;963;42.644;23.336;2023-03-19T02:39:58;94651.25;;;3.87;57.14
1472;BME280;963;42.644;23.336;2023-03-19T02:42:29;94658.75;;;3.88;57.04
1472;BME280;963;42.644;23.336;2023-03-19T02:44:55;94672.38;;;3.85;57.04
1472;BME280;963;42.644;23.336;2023-03-19T02:47:20;94646.34;;;3.85;57.21
1472;BME280;963;42.644;23.336;2023-03-19T02:49:46;94664.13;;;3.92;57.27
1472;BME280;963;42.644;23.336;2023-03-19T02:52:12;94659.84;;;3.87;57.45
1472;BME280;963;42.644;23.336;2023-03-19T02:54:38;94646.63;;;3.75;57.26
1472;BME280;963;42.644;23.336;2023-03-19T02:57:03;94675.59;;;3.82;57.15
1472;BME280;963;42.644;23.336;2023-03-19T02:59:29;94645.25;;;3.78;57.25
1472;BME280;963;42.644;23.336;2023-03-19T03:01:55;94649.25;;;3.84;57.35
1472;BME280;963;42.644;23.336;2023-03-19T03:04:20;94654.03;;;3.90;57.38
1472;BME280;963;42.644;23.336;2023-03-19T03:06:46;94660.59;;;3.88;57.52
1472;BME280;963;42.644;23.336;2023-03-19T03:09:12;94670.56;;;3.94;57.45
1472;BME280;963;42.644;23.336;2023-03-19T03:11:37;94659.56;;;3.97;57.36
1472;BME280;963;42.644;23.336;2023-03-19T03:14:05;94660.94;;;4.03;57.32
1472;BME280;963;42.644;23.336;2023-03-19T03:16:31;94669.22;;;4.05;57.26
1472;BME280;963;42.644;23.336;2023-03-19T03:18:57;94674.41;;;3.97;57.48
1472;BME280;963;42.644;23.336;2023-03-19T03:21:22;94672.84;;;3.87;57.83
1472;BME280;963;42.644;23.336;2023-03-19T03:23:48;94669.03;;;3.93;57.63
1472;BME280;963;42.644;23.336;2023-03-19T03:26:14;94671.16;;;3.91;57.92
1472;BME280;963;42.644;23.336;2023-03-19T03:28:40;94686.19;;;3.94;58.55
1472;BME280;963;42.644;23.336;2023-03-19T03:31:05;94686.94;;;3.95;58.52
1472;BME280;963;42.644;23.336;2023-03-19T03:33:31;94676.69;;;3.90;58.93
1472;BME280;963;42.644;23.336;2023-03-19T03:35:57;94695.31;;;3.83;59.34
1472;BME280;963;42.644;23.336;2023-03-19T03:38:22;94672.81;;;3.79;59.57
1472;BME280;963;42.644;23.336;2023-03-19T03:40:51;94692.25;;;3.81;59.91
1472;BME280;963;42.644;23.336;2023-03-19T03:43:18;94685.81;;;3.79;60.10
1472;BME280;963;42.644;23.336;2023-03-19T03:45:44;94699.84;;;3.69;60.04
1472;BME280;963;42.644;23.336;2023-03-19T03:48:12;94691.06;;;3.56;60.35
1472;BME280;963;42.644;23.336;2023-03-19T03:50:37;94688.91;;;3.58;60.57
1472;BME280;963;42.644;23.336;2023-03-19T03:53:03;94683.38;;;3.51;60.72
1472;BME280;963;42.644;23.336;2023-03-19T03:55:29;94691.47;;;3.50;60.89
1472;BME280;963;42.644;23.336;2023-03-19T03:57:54;94694.63;;;3.38;61.08
1472;BME280;963;42.644;23.336;2023-03-19T04:00:20;94700.00;;;3.41;61.25
1472;BME280;963;42.644;23.336;2023-03-19T04:02:46;94697.88;;;3.43;61.03
1472;BME280;963;42.644;23.336;2023-03-19T04:05:11;94693.00;;;3.51;60.60
1472;BME280;963;42.644;23.336;2023-03-19T04:07:37;94690.59;;;3.54;60.77
1472;BME280;963;42.644;23.336;2023-03-19T04:10:03;94688.59;;;3.51;60.85
1472;BME280;963;42.644;23.336;2023-03-19T04:12:30;94699.59;;;3.48;60.98
1472;BME280;963;42.644;23.336;2023-03-19T04:14:55;94684.75;;;3.49;60.96
1472;BME280;963;42.644;23.336;2023-03-19T04:17:21;94680.63;;;3.48;60.93
1472;BME280;963;42.644;23.336;2023-03-19T04:19:48;94678.47;;;3.50;61.06
1472;BME280;963;42.644;23.336;2023-03-19T04:22:13;94689.81;;;3.54;60.90
1472;BME280;963;42.644;23.336;2023-03-19T04:24:40;94687.22;;;3.54;60.87
1472;BME280;963;42.644;23.336;2023-03-19T04:27:06;94682.91;;;3.49;60.87
1472;BME280;963;42.644;23.336;2023-03-19T04:29:32;94690.06;;;3.43;61.15
1472;BME280;963;42.644;23.336;2023-03-19T04:31:57;94684.53;;;3.36;61.08
1472;BME280;963;42.644;23.336;2023-03-19T04:34:23;94695.75;;;3.45;61.28
1472;BME280;963;42.644;23.336;2023-03-19T04:36:49;94692.34;;;3.36;61.47
1472;BME280;963;42.644;23.336;2023-03-19T04:39:16;94700.59;;;3.38;61.28
1472;BME280;963;42.644;23.336;2023-03-19T04:41:42;94698.69;;;3.30;61.75
1472;BME280;963;42.644;23.336;2023-03-19T04:44:08;94707.72;;;3.33;61.53
1472;BME280;963;42.644;23.336;2023-03-19T04:46:33;94712.75;;;3.29;61.26
1472;BME280;963;42.644;23.336;2023-03-19T04:48:59;94700.81;;;3.28;61.57
1472;BME280;963;42.644;23.336;2023-03-19T04:51:24;94710.03;;;3.34;60.97
1472;BME280;963;42.644;23.336;2023-03-19T04:53:50;94691.19;;;3.29;61.63
1472;BME280;963;42.644;23.336;2023-03-19T04:56:15;94695.44;;;3.25;61.67
1472;BME280;963;42.644;23.336;2023-03-19T04:58:42;94708.50;;;3.33;61.81
1472;BME280;963;42.644;23.336;2023-03-19T05:01:08;94689.81;;;3.31;61.72
1472;BME280;963;42.644;23.336;2023-03-19T05:03:33;94687.19;;;3.23;62.09
1472;BME280;963;42.644;23.336;2023-03-19T05:05:59;94683.50;;;3.24;61.40
1472;BME280;963;42.644;23.336;2023-03-19T05:08:24;94696.22;;;3.25;61.50
1472;BME280;963;42.644;23.336;2023-03-19T05:10:50;94716.50;;;3.37;60.97
1472;BME280;963;42.644;23.336;2023-03-19T05:13:15;94695.75;;;3.45;60.69
1472;BME280;963;42.644;23.336;2023-03-19T05:15:42;94694.22;;;3.44;60.02
1472;BME280;963;42.644;23.336;2023-03-19T05:18:07;94694.34;;;3.39;60.90
1472;BME280;963;42.644;23.336;2023-03-19T05:20:33;94692.69;;;3.43;60.16
1472;BME280;963;42.644;23.336;2023-03-19T05:22:59;94677.72;;;3.27;60.73
1472;BME280;963;42.644;23.336;2023-03-19T05:25:25;94700.69;;;3.33;60.66
1472;BME280;963;42.644;23.336;2023-03-19T05:27:51;94708.69;;;3.37;60.73
1472;BME280;963;42.644;23.336;2023-03-19T05:30:16;94688.72;;;3.46;60.45
1472;BME280;963;42.644;23.336;2023-03-19T05:32:42;94706.09;;;3.68;60.45
1472;BME280;963;42.644;23.336;2023-03-19T05:35:08;94716.75;;;3.80;59.29
1472;BME280;963;42.644;23.336;2023-03-19T05:37:34;94687.34;;;3.49;57.41
1472;BME280;963;42.644;23.336;2023-03-19T05:39:59;94704.47;;;3.50;57.44
1472;BME280;963;42.644;23.336;2023-03-19T05:42:25;94691.75;;;2.81;59.48
1472;BME280;963;42.644;23.336;2023-03-19T05:44:50;94699.25;;;2.82;59.71
1472;BME280;963;42.644;23.336;2023-03-19T05:47:15;94677.59;;;2.87;59.82
1472;BME280;963;42.644;23.336;2023-03-19T05:49:41;94705.63;;;2.76;59.94
1472;BME280;963;42.644;23.336;2023-03-19T05:52:07;94710.00;;;2.90;60.05
1472;BME280;963;42.644;23.336;2023-03-19T05:54:32;94708.28;;;3.21;60.13
1472;BME280;963;42.644;23.336;2023-03-19T05:56:58;94712.28;;;3.05;60.42
1472;BME280;963;42.644;23.336;2023-03-19T05:59:23;94704.56;;;3.36;59.89
1472;BME280;963;42.644;23.336;2023-03-19T06:01:49;94727.38;;;3.70;59.48
1472;BME280;963;42.644;23.336;2023-03-19T06:04:14;94699.94;;;3.86;58.87
1472;BME280;963;42.644;23.336;2023-03-19T06:06:40;94703.16;;;3.61;59.66
1472;BME280;963;42.644;23.336;2023-03-19T06:09:06;94700.53;;;3.83;58.92
1472;BME280;963;42.644;23.336;2023-03-19T06:11:31;94717.28;;;4.08;58.85
1472;BME280;963;42.644;23.336;2023-03-19T06:13:57;94693.84;;;3.99;58.81
1472;BME280;963;42.644;23.336;2023-03-19T06:16:22;94692.56;;;4.19;58.43
1472;BME280;963;42.644;23.336;2023-03-19T06:18:48;94693.94;;;4.17;58.05
1472;BME280;963;42.644;23.336;2023-03-19T06:21:13;94707.09;;;4.12;58.74
1472;BME280;963;42.644;23.336;2023-03-19T06:23:38;94706.63;;;4.18;57.99
1472;BME280;963;42.644;23.336;2023-03-19T06:26:04;94695.78;;;4.25;58.35
1472;BME280;963;42.644;23.336;2023-03-19T06:28:30;94706.34;;;4.28;58.07
1472;BME280;963;42.644;23.336;2023-03-19T06:30:56;94711.13;;;4.35;58.18
1472;BME280;963;42.644;23.336;2023-03-19T06:33:21;94713.63;;;4.57;57.97
1472;BME280;963;42.644;23.336;2023-03-19T06:35:50;94712.28;;;4.77;57.35
1472;BME280;963;42.644;23.336;2023-03-19T06:38:15;94710.91;;;4.97;56.93
1472;BME280;963;42.644;23.336;2023-03-19T06:40:40;94732.69;;;4.84;57.91
1472;BME280;963;42.644;23.336;2023-03-19T06:43:06;94713.06;;;5.12;56.35
1472;BME280;963;42.644;23.336;2023-03-19T06:45:32;94716.13;;;5.14;56.40
1472;BME280;963;42.644;23.336;2023-03-19T06:47:58;94704.00;;;5.27;56.23
1472;BME280;963;42.644;23.336;2023-03-19T06:50:23;94720.28;;;5.24;55.46
1472;BME280;963;42.644;23.336;2023-03-19T06:52:49;94710.28;;;5.17;55.97
1472;BME280;963;42.644;23.336;2023-03-19T06:55:14;94724.22;;;5.47;55.02
1472;BME280;963;42.644;23.336;2023-03-19T06:57:40;94735.75;;;5.38;54.98
1472;BME280;963;42.644;23.336;2023-03-19T07:00:06;94731.44;;;5.59;54.75
1472;BME280;963;42.644;23.336;2023-03-19T07:02:34;94734.47;;;5.78;54.26
1472;BME280;963;42.644;23.336;2023-03-19T07:05:00;94734.50;;;5.70;54.02
1472;BME280;963;42.644;23.336;2023-03-19T07:07:25;94731.88;;;5.52;54.28
1472;BME280;963;42.644;23.336;2023-03-19T07:09:50;94721.56;;;5.90;52.81
1472;BME280;963;42.644;23.336;2023-03-19T07:12:16;94725.56;;;5.97;52.42
1472;BME280;963;42.644;23.336;2023-03-19T07:14:41;94729.94;;;6.13;52.12
1472;BME280;963;42.644;23.336;2023-03-19T07:17:07;94731.13;;;6.24;52.42
1472;BME280;963;42.644;23.336;2023-03-19T07:19:32;94724.59;;;6.39;52.01
1472;BME280;963;42.644;23.336;2023-03-19T07:21:57;94715.50;;;6.45;52.19
1472;BME280;963;42.644;23.336;2023-03-19T07:24:23;94733.53;;;6.30;52.72
1472;BME280;963;42.644;23.336;2023-03-19T07:26:48;94732.34;;;6.56;52.07
1472;BME280;963;42.644;23.336;2023-03-19T07:29:14;94710.53;;;6.52;51.72
1472;BME280;963;42.644;23.336;2023-03-19T07:31:39;94713.25;;;6.65;51.18
1472;BME280;963;42.644;23.336;2023-03-19T07:34:05;94711.69;;;6.64;51.43
1472;BME280;963;42.644;23.336;2023-03-19T07:36:31;94718.44;;;6.73;50.92
1472;BME280;963;42.644;23.336;2023-03-19T07:38:56;94714.22;;;6.81;50.17
1472;BME280;963;42.644;23.336;2023-03-19T07:41:22;94728.06;;;6.81;49.92
1472;BME280;963;42.644;23.336;2023-03-19T07:43:47;94709.59;;;7.07;49.91
1472;BME280;963;42.644;23.336;2023-03-19T07:46:13;94714.19;;;7.10;50.41
1472;BME280;963;42.644;23.336;2023-03-19T07:48:38;94711.56;;;7.10;50.43
1472;BME280;963;42.644;23.336;2023-03-19T07:51:05;94712.69;;;7.21;50.38
1472;BME280;963;42.644;23.336;2023-03-19T07:53:30;94712.69;;;7.21;49.71
1472;BME280;963;42.644;23.336;2023-03-19T07:55:56;94712.09;;;7.37;49.12
1472;BME280;963;42.644;23.336;2023-03-19T07:58:21;94720.66;;;7.46;49.61
1472;BME280;963;42.644;23.336;2023-03-19T08:00:47;94705.13;;;7.41;49.86
1472;BME280;963;42.644;23.336;2023-03-19T08:03:12;94718.22;;;7.41;49.86
1472;BME280;963;42.644;23.336;2023-03-19T08:05:38;94718.34;;;7.77;48.63
1472;BME280;963;42.644;23.336;2023-03-19T08:08:03;94716.84;;;7.89;48.02
1472;BME280;963;42.644;23.336;2023-03-19T08:10:29;94717.31;;;8.03;47.73
1472;BME280;963;42.644;23.336;2023-03-19T08:12:54;94722.97;;;8.05;47.61
1472;BME280;963;42.644;23.336;2023-03-19T08:15:20;94723.19;;;8.00;47.67
1472;BME280;963;42.644;23.336;2023-03-19T08:17:45;94722.19;;;7.26;49.45
1472;BME280;963;42.644;23.336;2023-03-19T08:20:13;94686.97;;;7.44;48.37
1472;BME280;963;42.644;23.336;2023-03-19T08:22:41;94710.91;;;7.67;48.45
1472;BME280;963;42.644;23.336;2023-03-19T08:25:07;94723.28;;;7.91;47.78
1472;BME280;963;42.644;23.336;2023-03-19T08:27:33;94725.16;;;8.15;47.13
1472;BME280;963;42.644;23.336;2023-03-19T08:30:01;94713.72;;;8.32;47.26
1472;BME280;963;42.644;23.336;2023-03-19T08:32:28;94720.66;;;7.91;48.04
1472;BME280;963;42.644;23.336;2023-03-19T08:34:53;94718.81;;;8.04;48.37
1472;BME280;963;42.644;23.336;2023-03-19T08:37:20;94713.41;;;8.21;46.86
1472;BME280;963;42.644;23.336;2023-03-19T08:39:45;94706.88;;;8.52;46.93
1472;BME280;963;42.644;23.336;2023-03-19T08:42:11;94701.84;;;8.59;46.30
1472;BME280;963;42.644;23.336;2023-03-19T08:44:36;94698.31;;;8.79;45.40
1472;BME280;963;42.644;23.336;2023-03-19T08:47:02;94687.00;;;8.63;45.72
1472;BME280;963;42.644;23.336;2023-03-19T08:49:28;94685.84;;;8.88;45.69
1472;BME280;963;42.644;23.336;2023-03-19T08:51:53;94695.00;;;9.06;45.04
1472;BME280;963;42.644;23.336;2023-03-19T08:54:19;94688.69;;;8.95;45.90
1472;BME280;963;42.644;23.336;2023-03-19T08:56:45;94666.97;;;9.11;44.96
1472;BME280;963;42.644;23.336;2023-03-19T08:59:11;94678.28;;;9.27;44.48
1472;BME280;963;42.644;23.336;2023-03-19T09:01:36;94666.06;;;9.19;45.64
1472;BME280;963;42.644;23.336;2023-03-19T09:04:02;94677.16;;;9.40;45.23
1472;BME280;963;42.644;23.336;2023-03-19T09:06:27;94671.97;;;9.71;44.27
1472;BME280;963;42.644;23.336;2023-03-19T09:08:53;94674.50;;;9.84;42.61
1472;BME280;963;42.644;23.336;2023-03-19T09:11:18;94652.56;;;9.92;43.28
1472;BME280;963;42.644;23.336;2023-03-19T09:13:44;94660.72;;;10.18;42.42
1472;BME280;963;42.644;23.336;2023-03-19T09:16:09;94660.88;;;10.10;42.33
1472;BME280;963;42.644;23.336;2023-03-19T09:18:35;94649.16;;;10.39;42.05
1472;BME280;963;42.644;23.336;2023-03-19T09:21:00;94657.38;;;10.53;41.97
1472;BME280;963;42.644;23.336;2023-03-19T09:23:26;94659.72;;;10.23;42.81
1472;BME280;963;42.644;23.336;2023-03-19T09:25:52;94649.69;;;10.44;42.80
1472;BME280;963;42.644;23.336;2023-03-19T09:28:18;94656.56;;;10.68;42.41
1472;BME280;963;42.644;23.336;2023-03-19T09:30:48;94662.72;;;10.91;42.27
1472;BME280;963;42.644;23.336;2023-03-19T09:33:15;94653.09;;;10.64;42.44
1472;BME280;963;42.644;23.336;2023-03-19T09:35:41;94651.69;;;11.05;41.63
1472;BME280;963;42.644;23.336;2023-03-19T09:38:06;94648.38;;;11.27;41.29
1472;BME280;963;42.644;23.336;2023-03-19T09:40:41;94651.06;;;11.31;41.38
1472;BME280;963;42.644;23.336;2023-03-19T09:43:27;94651.69;;;11.44;40.63
1472;BME280;963;42.644;23.336;2023-03-19T09:45:58;94652.72;;;11.58;40.84
1472;BME280;963;42.644;23.336;2023-03-19T09:48:46;94656.41;;;11.96;40.12
1472;BME280;963;42.644;23.336;2023-03-19T09:51:48;94643.84;;;12.12;39.40
1472;BME280;963;42.644;23.336;2023-03-19T09:54:31;94638.09;;;12.30;38.85
1472;BME280;963;42.644;23.336;2023-03-19T09:56:58;94646.56;;;11.93;39.69
1472;BME280;963;42.644;23.336;2023-03-19T09:59:25;94639.28;;;12.09;39.95
1472;BME280;963;42.644;23.336;2023-03-19T10:02:34;94639.09;;;12.48;38.92
1472;BME280;963;42.644;23.336;2023-03-19T10:05:21;94629.47;;;12.63;38.98
1472;BME280;963;42.644;23.336;2023-03-19T10:13:08;94619.38;;;13.28;37.44
1472;BME280;963;42.644;23.336;2023-03-19T10:15:37;94613.09;;;13.40;37.39
1472;BME280;963;42.644;23.336;2023-03-19T10:18:12;94620.06;;;13.59;37.51
1472;BME280;963;42.644;23.336;2023-03-19T10:21:03;94609.78;;;13.91;36.63
1472;BME280;963;42.644;23.336;2023-03-19T10:23:49;94599.19;;;13.87;36.05
1472;BME280;963;42.644;23.336;2023-03-19T10:26:19;94599.78;;;13.70;37.35
1472;BME280;963;42.644;23.336;2023-03-19T10:28:57;94589.94;;;14.15;36.04
1472;BME280;963;42.644;23.336;2023-03-19T10:31:28;94580.94;;;14.23;35.58
1472;BME280;963;42.644;23.336;2023-03-19T10:34:02;94581.53;;;14.53;35.57
1472;BME280;963;42.644;23.336;2023-03-19T10:36:33;94574.09;;;14.84;35.21
1472;BME280;963;42.644;23.336;2023-03-19T10:38:59;94573.78;;;14.99;35.39
1472;BME280;963;42.644;23.336;2023-03-19T10:41:49;94574.25;;;15.26;34.36
1472;BME280;963;42.644;23.336;2023-03-19T10:44:27;94573.53;;;15.47;34.71
1472;BME280;963;42.644;23.336;2023-03-19T10:46:59;94559.94;;;15.77;33.38
1472;BME280;963;42.644;23.336;2023-03-19T10:49:34;94558.75;;;15.43;33.70
1472;BME280;963;42.644;23.336;2023-03-19T10:52:00;94549.25;;;15.31;33.46
1472;BME280;963;42.644;23.336;2023-03-19T10:54:28;94546.31;;;15.61;33.96
1472;BME280;963;42.644;23.336;2023-03-19T10:56:59;94555.00;;;15.97;33.24
1472;BME280;963;42.644;23.336;2023-03-19T10:59:46;94550.03;;;16.35;32.78
1472;BME280;963;42.644;23.336;2023-03-19T11:02:17;94540.91;;;16.50;32.63
1472;BME280;963;42.644;23.336;2023-03-19T11:04:43;94542.81;;;16.35;32.81
1472;BME280;963;42.644;23.336;2023-03-19T11:07:13;94525.66;;;16.65;32.58
1472;BME280;963;42.644;23.336;2023-03-19T11:09:45;94524.09;;;16.88;32.05
1472;BME280;963;42.644;23.336;2023-03-19T11:14:43;94508.50;;;17.57;31.27
1472;BME280;963;42.644;23.336;2023-03-19T11:17:38;94514.72;;;17.91;30.74
1472;BME280;963;42.644;23.336;2023-03-19T11:22:36;94490.25;;;18.41;29.88
1472;BME280;963;42.644;23.336;2023-03-19T11:25:17;94487.09;;;18.50;30.26
1472;BME280;963;42.644;23.336;2023-03-19T11:27:44;94486.00;;;18.81;29.13
1472;BME280;963;42.644;23.336;2023-03-19T11:30:21;94484.94;;;19.05;29.06
1472;BME280;963;42.644;23.336;2023-03-19T11:38:32;94472.91;;;19.94;28.81
1472;BME280;963;42.644;23.336;2023-03-19T11:41:29;94474.13;;;20.13;28.46
1472;BME280;963;42.644;23.336;2023-03-19T11:44:07;94453.00;;;20.39;28.43
1472;BME280;963;42.644;23.336;2023-03-19T11:46:49;94456.13;;;20.57;28.15
1472;BME280;963;42.644;23.336;2023-03-19T11:52:17;94448.44;;;20.39;27.76
1472;BME280;963;42.644;23.336;2023-03-19T12:00:51;94446.72;;;20.09;27.55
1472;BME280;963;42.644;23.336;2023-03-19T12:03:20;94451.19;;;20.16;27.66
1472;BME280;963;42.644;23.336;2023-03-19T12:06:11;94443.22;;;20.12;27.80
1472;BME280;963;42.644;23.336;2023-03-19T12:08:49;94439.66;;;20.39;27.87
1472;BME280;963;42.644;23.336;2023-03-19T12:11:52;94442.78;;;20.57;27.12
1472;BME280;963;42.644;23.336;2023-03-19T12:14:49;94434.16;;;20.85;27.41
1472;BME280;963;42.644;23.336;2023-03-19T12:17:42;94432.84;;;21.10;27.06
1472;BME280;963;42.644;23.336;2023-03-19T12:20:35;94419.19;;;21.57;27.29
1472;BME280;963;42.644;23.336;2023-03-19T12:23:05;94410.41;;;22.01;26.97
1472;BME280;963;42.644;23.336;2023-03-19T12:31:27;94408.50;;;21.57;26.49
1472;BME280;963;42.644;23.336;2023-03-19T12:34:00;94409.84;;;22.23;26.18
1472;BME280;963;42.644;23.336;2023-03-19T12:36:30;94397.94;;;22.65;25.91
1472;BME280;963;42.644;23.336;2023-03-19T12:39:12;94395.72;;;23.15;25.43
1472;BME280;963;42.644;23.336;2023-03-19T12:41:42;94390.31;;;23.40;25.44
1472;BME280;963;42.644;23.336;2023-03-19T12:44:42;94389.34;;;23.47;24.77
1472;BME280;963;42.644;23.336;2023-03-19T12:47:08;94398.28;;;23.31;24.88
1472;BME280;963;42.644;23.336;2023-03-19T12:50:13;94387.44;;;23.34;24.54
1472;BME280;963;42.644;23.336;2023-03-19T12:52:36;94397.97;;;23.16;25.06
1472;BME280;963;42.644;23.336;2023-03-19T12:55:13;94394.50;;;23.54;25.17
1472;BME280;963;42.644;23.336;2023-03-19T12:57:52;94400.34;;;24.09;24.73
1472;BME280;963;42.644;23.336;2023-03-19T13:00:29;94386.84;;;24.43;24.09
1472;BME280;963;42.644;23.336;2023-03-19T13:03:16;94384.47;;;24.67;23.67
1472;BME280;963;42.644;23.336;2023-03-19T13:08:31;94376.72;;;24.78;24.41
1472;BME280;963;42.644;23.336;2023-03-19T13:10:59;94379.16;;;25.25;23.46
1472;BME280;963;42.644;23.336;2023-03-19T13:13:35;94373.97;;;25.40;22.98
1472;BME280;963;42.644;23.336;2023-03-19T13:16:18;94357.34;;;25.33;23.39
1472;BME280;963;42.644;23.336;2023-03-19T13:21:54;94341.84;;;25.92;22.95
1472;BME280;963;42.644;23.336;2023-03-19T13:24:30;94344.50;;;26.01;23.27
1472;BME280;963;42.644;23.336;2023-03-19T13:26:59;94349.13;;;26.37;22.92
1472;BME280;963;42.644;23.336;2023-03-19T13:29:30;94341.13;;;26.61;22.83
1472;BME280;963;42.644;23.336;2023-03-19T13:32:00;94344.97;;;26.78;22.27
1472;BME280;963;42.644;23.336;2023-03-19T13:34:30;94353.53;;;26.67;22.02
1472;BME280;963;42.644;23.336;2023-03-19T13:37:19;94357.09;;;26.22;22.30
1472;BME280;963;42.644;23.336;2023-03-19T13:39:45;94350.06;;;25.97;22.73
1472;BME280;963;42.644;23.336;2023-03-19T13:42:41;94347.38;;;25.88;22.71
1472;BME280;963;42.644;23.336;2023-03-19T13:47:56;94357.09;;;26.13;22.97
1472;BME280;963;42.644;23.336;2023-03-19T13:50:27;94338.09;;;26.07;22.62
1472;BME280;963;42.644;23.336;2023-03-19T13:53:20;94336.13;;;26.08;22.65
1472;BME280;963;42.644;23.336;2023-03-19T13:56:01;94328.34;;;26.10;22.47
1472;BME280;963;42.644;23.336;2023-03-19T13:58:29;94332.56;;;26.02;22.56
1472;BME280;963;42.644;23.336;2023-03-19T14:04:02;94329.78;;;26.47;22.58
1472;BME280;963;42.644;23.336;2023-03-19T14:06:32;94328.91;;;26.41;22.20
1472;BME280;963;42.644;23.336;2023-03-19T14:09:00;94328.06;;;25.90;22.64
1472;BME280;963;42.644;23.336;2023-03-19T14:11:31;94328.34;;;25.55;22.82
1472;BME280;963;42.644;23.336;2023-03-19T14:14:06;94327.38;;;25.12;23.23
1472;BME280;963;42.644;23.336;2023-03-19T14:16:41;94329.75;;;25.10;23.59
1472;BME280;963;42.644;23.336;2023-03-19T14:19:16;94319.94;;;25.53;23.57
1472;BME280;963;42.644;23.336;2023-03-19T14:22:00;94319.66;;;25.97;22.75
1472;BME280;963;42.644;23.336;2023-03-19T14:27:01;94311.03;;;26.53;22.76